Latest Weather Observations for Colpoys Point

IDW60801

Issued at 11:53 am WST Tuesday 28 May 2024 (issued every 10 minutes, with the page automatically refreshed every 10 minutes)

About weather observations | Map of weather stations | Latest weather observations for WA | Other Formats
Station Details ID: 009255 Name: COLPOYS POINT Lat: -32.23 Lon: 115.70 Height: 3.0 m
Data from the previous 72 hours. | See also: Recent months for locations in Western Australia
Date/Time
WST
Temp
°C
App
Temp
°C
Dew
Point
°C
Rel
Hum
%
Delta-T
°C
Wind Press
QNH
hPa
Press
MSL
hPa
Rain since
9am
mm
Dir  Spd
km/h
Gust
km/h
Spd
kts
Gust
kts
28/11:30am - - - - - NNE 9 11 5 6 - - -
28/11:00am - - - - - WNW 6 9 3 5 - - -
28/10:30am - - - - - WNW 9 13 5 7 - - -
28/10:00am - - - - - NNE 13 17 7 9 - - -
28/09:30am - - - - - NNE 15 17 8 9 - - -
28/09:00am - - - - - NNE 15 20 8 11 - - -
28/08:30am - - - - - NNE 22 26 12 14 - - -
28/08:00am - - - - - NNE 22 30 12 16 - - -
28/07:30am - - - - - ENE 11 13 6 7 - - -
28/07:00am - - - - - ENE 15 15 8 8 - - -
28/06:30am - - - - - NE 13 17 7 9 - - -
28/06:00am - - - - - ENE 15 17 8 9 - - -
28/05:30am - - - - - E 11 13 6 7 - - -
28/05:00am - - - - - ESE 9 13 5 7 - - -
28/04:30am - - - - - ESE 7 9 4 5 - - -
28/04:00am - - - - - E 7 11 4 6 - - -
28/03:30am - - - - - E 7 7 4 4 - - -
28/03:00am - - - - - E 9 11 5 6 - - -
28/02:30am - - - - - ESE 11 13 6 7 - - -
28/02:00am - - - - - ESE 13 15 7 8 - - -
28/01:30am - - - - - E 17 19 9 10 - - -
28/01:00am - - - - - SE 17 19 9 10 - - -
28/12:30am - - - - - SSE 24 28 13 15 - - -
28/12:00am - - - - - SSE 19 22 10 12 - - -
 
Date/Time
WST
Temp
°C
App
Temp
°C
Dew
Point
°C
Rel
Hum
%
Delta-T
°C
Wind Press
QNH
hPa
Press
MSL
hPa
Rain since
9am
mm
Dir  Spd
km/h
Gust
km/h
Spd
kts
Gust
kts
27/11:30pm - - - - - SE 17 20 9 11 - - -
27/11:00pm - - - - - SSE 24 32 13 17 - - -
27/10:30pm - - - - - SSE 22 28 12 15 - - -
27/10:00pm - - - - - SSE 9 19 5 10 - - -
27/09:30pm - - - - - SSE 13 15 7 8 - - -
27/09:00pm - - - - - SE 13 15 7 8 - - -
27/08:30pm - - - - - SE 15 19 8 10 - - -
27/08:00pm - - - - - SSE 20 26 11 14 - - -
27/07:30pm - - - - - SSE 22 26 12 14 - - -
27/07:00pm - - - - - SSW 28 37 15 20 - - -
27/06:30pm - - - - - W 15 26 8 14 - - -
27/06:00pm - - - - - NNE 4 6 2 3 - - -
27/05:30pm - - - - - N 9 11 5 6 - - -
27/05:00pm - - - - - NW 6 7 3 4 - - -
27/04:30pm - - - - - NW 9 13 5 7 - - -
27/04:00pm - - - - - NNW 9 13 5 7 - - -
27/03:30pm - - - - - NNW 13 17 7 9 - - -
27/03:00pm - - - - - NNW 20 28 11 15 - - -
27/02:30pm - - - - - N 26 33 14 18 - - -
27/02:00pm - - - - - N 24 33 13 18 - - -
27/01:30pm - - - - - N 22 30 12 16 - - -
27/01:00pm - - - - - N 19 28 10 15 - - -
27/12:30pm - - - - - N 17 20 9 11 - - -
27/12:00pm - - - - - N 15 20 8 11 - - -
27/11:30am - - - - - NNW 6 9 3 5 - - -
27/11:00am - - - - - CALM 0 0 0 0 - - -
27/10:30am - - - - - WNW 6 9 3 5 - - -
27/10:00am - - - - - NNW 11 20 6 11 - - -
27/09:30am - - - - - N 13 19 7 10 - - -
27/09:00am - - - - - NNE 22 28 12 15 - - -
27/08:30am - - - - - N 17 24 9 13 - - -
27/08:00am - - - - - NNE 24 28 13 15 - - -
27/07:30am - - - - - NNE 22 28 12 15 - - -
27/07:00am - - - - - N 17 24 9 13 - - -
27/06:30am - - - - - N 11 15 6 8 - - -
27/06:00am - - - - - NE 13 17 7 9 - - -
27/05:30am - - - - - NE 19 22 10 12 - - -
27/05:00am - - - - - NE 15 19 8 10 - - -
27/04:30am - - - - - NNW 9 13 5 7 - - -
27/04:00am - - - - - ENE 9 11 5 6 - - -
27/03:30am - - - - - WSW 7 9 4 5 - - -
27/03:00am - - - - - SW 17 22 9 12 - - -
27/02:30am - - - - - SW 17 20 9 11 - - -
27/02:00am - - - - - NE 9 11 5 6 - - -
27/01:30am - - - - - NNE 13 17 7 9 - - -
27/01:00am - - - - - NNE 15 17 8 9 - - -
27/12:30am - - - - - NNE 15 17 8 9 - - -
27/12:00am - - - - - N 11 13 6 7 - - -
 
Date/Time
WST
Temp
°C
App
Temp
°C
Dew
Point
°C
Rel
Hum
%
Delta-T
°C
Wind Press
QNH
hPa
Press
MSL
hPa
Rain since
9am
mm
Dir  Spd
km/h
Gust
km/h
Spd
kts
Gust
kts
26/11:30pm - - - - - NNE 17 19 9 10 - - -
26/11:00pm - - - - - NNE 17 19 9 10 - - -
26/10:30pm - - - - - NNE 15 17 8 9 - - -
26/10:00pm - - - - - NNE 15 17 8 9 - - -
26/09:30pm - - - - - NNE 13 17 7 9 - - -
26/09:00pm - - - - - NNE 15 17 8 9 - - -
26/08:30pm - - - - - NNE 15 17 8 9 - - -
26/08:00pm - - - - - N 15 17 8 9 - - -
26/07:30pm - - - - - N 15 15 8 8 - - -
26/07:00pm - - - - - N 15 17 8 9 - - -
26/06:30pm - - - - - NNE 15 17 8 9 - - -
26/06:00pm - - - - - NNE 15 17 8 9 - - -
26/05:30pm - - - - - NNE 9 13 5 7 - - -
26/05:00pm - - - - - CALM 0 0 0 0 - - -
26/04:30pm - - - - - WSW 9 13 5 7 - - -
26/04:00pm - - - - - NNW 2 7 1 4 - - -
26/03:30pm - - - - - N 9 13 5 7 - - -
26/03:00pm - - - - - WNW 13 17 7 9 - - -
26/02:30pm - - - - - NW 15 22 8 12 - - -
26/02:00pm - - - - - W 13 19 7 10 - - -
26/01:30pm - - - - - W 22 30 12 16 - - -
26/01:00pm - - - - - NW 17 30 9 16 - - -
26/12:30pm - - - - - N 20 26 11 14 - - -
26/12:00pm - - - - - N 17 26 9 14 - - -
26/11:30am - - - - - N 22 30 12 16 - - -
26/11:00am - - - - - N 24 32 13 17 - - -
26/10:30am - - - - - N 24 32 13 17 - - -
26/10:00am - - - - - N 22 26 12 14 - - -
26/09:30am - - - - - N 24 28 13 15 - - -
26/09:00am - - - - - NNE 30 33 16 18 - - -
26/08:30am - - - - - NNE 24 30 13 16 - - -
26/08:00am - - - - - NNE 19 22 10 12 - - -
26/07:30am - - - - - NNE 20 24 11 13 - - -
26/07:00am - - - - - NNE 19 22 10 12 - - -
26/06:30am - - - - - NNE 22 24 12 13 - - -
26/06:00am - - - - - NNE 17 20 9 11 - - -
26/05:30am - - - - - NNE 19 19 10 10 - - -
26/05:00am - - - - - NNE 19 20 10 11 - - -
26/04:30am - - - - - NNE 13 17 7 9 - - -
26/04:00am - - - - - NE 13 17 7 9 - - -
26/03:30am - - - - - NNE 13 15 7 8 - - -
26/03:00am - - - - - NNE 11 13 6 7 - - -
26/02:30am - - - - - NE 11 13 6 7 - - -
26/02:00am - - - - - NE 13 15 7 8 - - -
26/01:30am - - - - - NE 13 15 7 8 - - -
26/01:00am - - - - - NNE 15 19 8 10 - - -
26/12:30am - - - - - NNE 13 15 7 8 - - -
26/12:00am - - - - - NNE 11 13 6 7 - - -
 
Date/Time
WST
Temp
°C
App
Temp
°C
Dew
Point
°C
Rel
Hum
%
Delta-T
°C
Wind Press
QNH
hPa
Press
MSL
hPa
Rain since
9am
mm
Dir  Spd
km/h
Gust
km/h
Spd
kts
Gust
kts
25/11:30pm - - - - - NNE 13 15 7 8 - - -
25/11:00pm - - - - - NNE 15 17 8 9 - - -
25/10:30pm - - - - - NNE 13 15 7 8 - - -
25/10:00pm - - - - - NE 17 17 9 9 - - -
25/09:30pm - - - - - NNE 13 15 7 8 - - -
25/09:00pm - - - - - ENE 11 13 6 7 - - -
25/08:30pm - - - - - E 13 15 7 8 - - -
25/08:00pm - - - - - ESE 15 17 8 9 - - -
25/07:30pm - - - - - SE 17 22 9 12 - - -
25/07:00pm - - - - - SSW 13 19 7 10 - - -
25/06:30pm - - - - - SSW 17 24 9 13 - - -
25/06:00pm - - - - - SW 6 7 3 4 - - -
25/05:30pm - - - - - SSW 24 30 13 16 - - -
25/05:00pm - - - - - SW 24 28 13 15 - - -
25/04:30pm - - - - - SW 15 22 8 12 - - -
25/04:00pm - - - - - WSW 17 39 9 21 - - -
25/03:30pm - - - - - W 15 20 8 11 - - -
25/03:00pm - - - - - W 17 20 9 11 - - -
25/02:30pm - - - - - N 7 9 4 5 - - -
25/02:00pm - - - - - NW 17 26 9 14 - - -
25/01:30pm - - - - - WNW 20 28 11 15 - - -
25/01:00pm - - - - - WNW 22 30 12 16 - - -
25/12:30pm - - - - - W 20 28 11 15 - - -
25/12:00pm - - - - - WNW 19 26 10 14 - - -

Other formats

Comma delimited format used in spreadsheet applications
http://www.bom.gov.au/fwo/IDW60801/IDW60801.99255.axf

JavaScript Object Notation format (JSON) in row-major order
http://www.bom.gov.au/fwo/IDW60801/IDW60801.99255.json

Data quality

Most of these data are generated automatically and are frequently updated. Quality checks on data are not normally performed. It is possible for incorrect values to appear. Refer to information at About Latest Weather Observations and please check the disclaimer before using these data.